Time;durP1;ratioP1;P1;durP2;ratioP2;P2;SDS_P1;SDS_P2;PMS_P1;PMS_P2;Temp;Humidity;BMP_temperature;BMP_pressure;BME280_temperature;BME280_humidity;BME280_pressure;Samples;Min_cycle;Max_cycle;Signal;HPM_P1;HPM_P2
2021/09/11 00:00:47;;;;;;;16.67;12.73;;;21.50;99.90;;;;;;5073987;28;20028;-77
2021/09/11 00:03:13;;;;;;;18.40;12.30;;;21.40;99.90;;;;;;5075172;28;20086;-77
2021/09/11 00:05:39;;;;;;;17.55;13.20;;;21.40;99.90;;;;;;5069737;28;20036;-77
2021/09/11 00:08:05;;;;;;;16.38;12.65;;;21.40;99.90;;;;;;5073187;28;20024;-77
2021/09/11 00:10:31;;;;;;;20.45;14.18;;;21.30;99.90;;;;;;5071669;28;20031;-77
2021/09/11 00:12:57;;;;;;;15.07;13.05;;;21.30;99.90;;;;;;5069372;28;20358;-78
2021/09/11 00:15:31;;;;;;;19.42;14.70;;;21.40;99.90;;;;;;5067907;28;20054;-77
2021/09/11 00:17:57;;;;;;;20.63;14.65;;;21.30;99.90;;;;;;5069688;28;20021;-77
2021/09/11 00:20:23;;;;;;;22.88;16.00;;;21.30;99.90;;;;;;5072672;28;20032;-78
2021/09/11 00:22:49;;;;;;;25.35;15.98;;;21.30;99.90;;;;;;5068985;28;20435;-77
2021/09/11 00:25:15;;;;;;;18.30;15.35;;;21.30;99.90;;;;;;5073625;28;20048;-77
2021/09/11 00:27:40;;;;;;;23.65;16.05;;;21.30;99.90;;;;;;5069290;28;20024;-78
2021/09/11 00:30:06;;;;;;;27.15;18.77;;;21.30;99.90;;;;;;5069740;28;20372;-77
2021/09/11 00:32:32;;;;;;;20.10;15.48;;;21.30;99.90;;;;;;5071243;28;20510;-78
2021/09/11 00:34:58;;;;;;;19.38;15.13;;;21.20;99.90;;;;;;5068454;28;20056;-78
2021/09/11 00:37:24;;;;;;;20.60;15.90;;;21.30;99.90;;;;;;5072343;28;20063;-77
2021/09/11 00:39:49;;;;;;;31.88;19.00;;;21.30;99.90;;;;;;5067816;28;20187;-77
2021/09/11 00:42:15;;;;;;;21.85;16.63;;;21.20;99.90;;;;;;5067216;28;20058;-78
2021/09/11 00:44:41;;;;;;;22.88;16.92;;;21.30;99.90;;;;;;5067810;28;20028;-77
2021/09/11 00:47:06;;;;;;;26.80;18.13;;;21.20;99.90;;;;;;5072905;28;20116;-78
2021/09/11 00:49:32;;;;;;;25.02;16.48;;;21.20;99.90;;;;;;5075595;28;20031;-78
2021/09/11 00:51:57;;;;;;;24.10;16.75;;;21.20;99.90;;;;;;5073993;28;20836;-77
2021/09/11 00:54:23;;;;;;;27.02;16.60;;;21.20;99.90;;;;;;5076564;28;20109;-78
2021/09/11 00:56:51;;;;;;;25.00;17.20;;;21.10;99.90;;;;;;5075174;28;20541;-77
2021/09/11 00:59:16;;;;;;;27.17;16.08;;;21.10;99.90;;;;;;5073365;28;20028;-77
2021/09/11 01:01:42;;;;;;;27.15;17.20;;;21.10;99.90;;;;;;5073848;28;20345;-77
2021/09/11 01:04:08;;;;;;;29.40;18.52;;;21.10;99.90;;;;;;5071605;28;20432;-77
2021/09/11 01:06:34;;;;;;;24.90;16.88;;;21.00;99.90;;;;;;5073371;28;20084;-77
2021/09/11 01:09:01;;;;;;;22.77;15.30;;;21.00;99.90;;;;;;5071660;28;20098;-77
2021/09/11 01:11:26;;;;;;;22.20;14.95;;;20.90;99.90;;;;;;5073947;28;20037;-77
2021/09/11 01:13:52;;;;;;;24.90;15.30;;;21.00;99.90;;;;;;5070437;28;20488;-77
2021/09/11 01:16:18;;;;;;;19.92;14.90;;;20.90;99.90;;;;;;5066969;28;20020;-77
2021/09/11 01:18:45;;;;;;;19.70;14.90;;;20.90;99.90;;;;;;5069425;28;20020;-77
2021/09/11 01:21:10;;;;;;;19.67;14.60;;;20.80;99.90;;;;;;5068737;28;20021;-78
2021/09/11 01:23:41;;;;;;;25.60;15.75;;;20.80;99.90;;;;;;5068371;28;20023;-77
2021/09/11 01:26:07;;;;;;;22.17;15.68;;;20.80;99.90;;;;;;5062783;28;20137;-77
2021/09/11 01:28:32;;;;;;;23.27;15.43;;;20.80;99.90;;;;;;5069257;28;20039;-77
2021/09/11 01:30:58;;;;;;;22.85;14.30;;;20.70;99.90;;;;;;5071014;28;20033;-77
2021/09/11 01:33:24;;;;;;;23.63;15.40;;;20.70;99.90;;;;;;5060950;28;20032;-77
2021/09/11 01:35:53;;;;;;;19.67;13.98;;;20.70;99.90;;;;;;5064506;28;20413;-77
2021/09/11 01:38:19;;;;;;;17.13;13.25;;;20.70;99.90;;;;;;5065636;28;20503;-77
2021/09/11 01:40:45;;;;;;;16.48;11.93;;;20.60;99.90;;;;;;5063964;28;20032;-77
2021/09/11 01:43:10;;;;;;;19.48;12.63;;;20.50;99.90;;;;;;5069587;28;20021;-77
2021/09/11 01:45:36;;;;;;;13.82;10.57;;;20.50;99.90;;;;;;5064769;28;20050;-77
2021/09/11 01:48:02;;;;;;;13.65;10.10;;;20.50;99.90;;;;;;5071818;28;20031;-77
2021/09/11 01:50:27;;;;;;;15.48;11.00;;;20.40;99.90;;;;;;5070004;28;20565;-77
2021/09/11 01:52:53;;;;;;;15.48;11.63;;;20.40;99.90;;;;;;5062308;28;20473;-77
2021/09/11 01:55:20;;;;;;;16.73;12.00;;;20.40;99.90;;;;;;5066392;28;20114;-78
2021/09/11 01:57:47;;;;;;;12.60;11.00;;;20.40;99.90;;;;;;5066544;28;20020;-77
2021/09/11 02:00:15;;;;;;;14.07;11.15;;;20.40;99.90;;;;;;5070644;28;20028;-78
2021/09/11 02:02:41;;;;;;;11.13;9.80;;;20.30;99.90;;;;;;5065813;28;20424;-77
2021/09/11 02:05:09;;;;;;;16.42;10.75;;;20.20;99.90;;;;;;5067842;28;20387;-77
2021/09/11 02:07:35;;;;;;;12.23;9.88;;;20.20;99.90;;;;;;5068933;28;20027;-77
2021/09/11 02:10:02;;;;;;;14.43;10.50;;;20.20;99.90;;;;;;5063966;28;20028;-78
2021/09/11 02:12:28;;;;;;;12.75;10.00;;;20.20;99.90;;;;;;5063770;28;20032;-78
2021/09/11 02:14:54;;;;;;;14.38;9.90;;;20.20;99.90;;;;;;5063874;28;20021;-77
2021/09/11 02:17:21;;;;;;;15.68;9.55;;;20.10;99.90;;;;;;5065325;28;20028;-77
2021/09/11 02:19:47;;;;;;;14.32;9.25;;;20.00;99.90;;;;;;5066091;28;20024;-77
2021/09/11 02:22:14;;;;;;;14.70;9.30;;;20.00;99.90;;;;;;5066053;28;20064;-77
2021/09/11 02:24:41;;;;;;;12.77;8.77;;;20.00;99.90;;;;;;5076264;28;20039;-77
2021/09/11 02:27:07;;;;;;;11.48;8.68;;;19.90;99.90;;;;;;5067088;28;20029;-78
2021/09/11 02:29:34;;;;;;;10.07;8.13;;;19.90;99.90;;;;;;5062692;28;20035;-78
2021/09/11 02:32:01;;;;;;;15.23;9.38;;;20.00;99.90;;;;;;5062542;28;20028;-78
2021/09/11 02:34:28;;;;;;;13.43;8.95;;;20.00;99.90;;;;;;5072537;28;20024;-77
2021/09/11 02:36:54;;;;;;;12.88;8.30;;;19.90;99.90;;;;;;5070245;28;20412;-77
2021/09/11 02:39:20;;;;;;;11.20;8.20;;;19.90;99.90;;;;;;5068256;28;20103;-77
2021/09/11 02:41:46;;;;;;;11.55;8.18;;;19.90;99.90;;;;;;5071388;28;20017;-77
2021/09/11 02:44:11;;;;;;;14.23;9.73;;;19.80;99.90;;;;;;5067432;28;20369;-78
2021/09/11 02:46:37;;;;;;;11.20;7.32;;;19.90;99.90;;;;;;5073306;28;20028;-77
2021/09/11 02:49:03;;;;;;;10.05;7.82;;;19.80;99.90;;;;;;5065648;28;20036;-77
2021/09/11 02:51:29;;;;;;;10.25;7.20;;;19.80;99.90;;;;;;5071998;28;20059;-78
2021/09/11 02:53:55;;;;;;;11.50;8.27;;;19.80;99.90;;;;;;5072434;28;20021;-77
2021/09/11 02:56:21;;;;;;;11.35;7.78;;;19.80;99.90;;;;;;5068332;28;20036;-78
2021/09/11 02:58:46;;;;;;;14.82;8.35;;;19.80;99.90;;;;;;5077001;28;20464;-78
2021/09/11 03:01:12;;;;;;;19.67;8.20;;;19.80;99.90;;;;;;5070820;28;20482;-77
2021/09/11 03:03:38;;;;;;;9.32;7.88;;;19.70;99.90;;;;;;5072244;28;20029;-77
2021/09/11 03:06:04;;;;;;;11.07;7.78;;;19.70;99.90;;;;;;5073786;28;20361;-77
2021/09/11 03:08:30;;;;;;;10.40;7.65;;;19.70;99.90;;;;;;5075174;28;20033;-78
2021/09/11 03:10:56;;;;;;;12.80;7.32;;;19.70;99.90;;;;;;5074289;28;20037;-78
2021/09/11 03:13:23;;;;;;;9.65;7.35;;;19.60;99.90;;;;;;5078410;28;20066;-77
2021/09/11 03:15:49;;;;;;;12.98;7.30;;;19.60;99.90;;;;;;5071629;28;20025;-77
2021/09/11 03:18:15;;;;;;;14.32;7.75;;;19.60;99.90;;;;;;5080528;28;20062;-77
2021/09/11 03:20:41;;;;;;;9.93;8.10;;;19.50;99.90;;;;;;5072233;28;20056;-78
2021/09/11 03:23:07;;;;;;;13.07;8.07;;;19.50;99.90;;;;;;5074163;28;20058;-78
2021/09/11 03:25:33;;;;;;;12.32;8.63;;;19.50;99.90;;;;;;5074251;28;20085;-77
2021/09/11 03:27:59;;;;;;;14.45;8.15;;;19.50;99.90;;;;;;5068721;28;20025;-78
2021/09/11 03:30:25;;;;;;;16.70;7.75;;;19.50;99.90;;;;;;5074995;28;20411;-77
2021/09/11 03:32:50;;;;;;;14.27;9.02;;;19.40;99.90;;;;;;5077690;28;20020;-77
2021/09/11 03:35:17;;;;;;;17.48;10.25;;;19.30;99.90;;;;;;5065682;28;20416;-78
2021/09/11 03:37:43;;;;;;;18.23;10.82;;;19.30;99.90;;;;;;5067525;28;20008;-77
2021/09/11 03:40:09;;;;;;;14.45;10.25;;;19.40;99.90;;;;;;5064311;28;20029;-77
2021/09/11 03:42:35;;;;;;;16.77;11.32;;;19.40;99.90;;;;;;5069840;28;20028;-77
2021/09/11 03:45:01;;;;;;;17.48;11.82;;;19.40;99.90;;;;;;5068910;28;20040;-77
2021/09/11 03:47:27;;;;;;;23.77;12.50;;;19.40;99.90;;;;;;5072492;28;20028;-78
2021/09/11 03:49:53;;;;;;;18.25;12.05;;;19.40;99.90;;;;;;5071559;28;20029;-77
2021/09/11 03:52:19;;;;;;;23.33;12.68;;;19.40;99.90;;;;;;5065019;28;20037;-77
2021/09/11 03:54:44;;;;;;;20.40;13.00;;;19.40;99.90;;;;;;5079412;28;20392;-77
2021/09/11 03:57:10;;;;;;;27.75;13.30;;;19.40;99.90;;;;;;5066575;28;20035;-77
2021/09/11 03:59:36;;;;;;;18.80;12.27;;;19.50;99.90;;;;;;5062531;28;20032;-78
2021/09/11 04:02:02;;;;;;;19.10;11.32;;;19.40;99.90;;;;;;5066796;28;20127;-78
2021/09/11 04:04:27;;;;;;;20.30;11.45;;;19.40;99.90;;;;;;5065356;28;20041;-77
2021/09/11 04:06:53;;;;;;;16.25;11.00;;;19.40;99.90;;;;;;5063969;28;20036;-77
2021/09/11 04:09:19;;;;;;;15.13;10.38;;;19.40;99.90;;;;;;5069891;28;20031;-77
2021/09/11 04:11:45;;;;;;;15.85;10.65;;;19.40;99.90;;;;;;5069192;28;20384;-77
2021/09/11 04:14:11;;;;;;;17.13;10.63;;;19.40;99.90;;;;;;5068262;28;20462;-77
2021/09/11 04:16:37;;;;;;;16.23;9.68;;;19.40;99.90;;;;;;5068081;28;20029;-78
2021/09/11 04:19:04;;;;;;;16.00;9.38;;;19.40;99.90;;;;;;5067124;28;20105;-78
2021/09/11 04:21:29;;;;;;;16.95;9.13;;;19.40;99.90;;;;;;5072530;28;20024;-77
2021/09/11 04:23:55;;;;;;;13.60;8.45;;;19.30;99.90;;;;;;5066796;28;20520;-78
2021/09/11 04:26:21;;;;;;;12.45;7.38;;;19.30;99.90;;;;;;5064489;28;20083;-77
2021/09/11 04:28:46;;;;;;;15.57;7.60;;;19.30;99.90;;;;;;5074386;28;20396;-78
2021/09/11 04:31:12;;;;;;;11.57;6.97;;;19.30;99.90;;;;;;5061142;28;20049;-77
2021/09/11 04:33:38;;;;;;;10.43;6.80;;;19.40;99.90;;;;;;5068546;28;20415;-77
2021/09/11 04:36:04;;;;;;;12.38;6.93;;;19.30;99.90;;;;;;5066518;28;20033;-78
2021/09/11 04:38:30;;;;;;;17.20;7.05;;;19.40;99.90;;;;;;5069713;28;20073;-77
2021/09/11 04:40:55;;;;;;;13.57;7.60;;;19.40;99.90;;;;;;5064621;28;20071;-77
2021/09/11 04:43:21;;;;;;;13.35;7.32;;;19.40;99.90;;;;;;5065401;28;20023;-77
2021/09/11 04:45:48;;;;;;;11.45;7.55;;;19.40;99.90;;;;;;5070847;28;20043;-77
2021/09/11 04:48:14;;;;;;;10.38;6.82;;;19.50;99.90;;;;;;5072230;28;20025;-78
2021/09/11 04:50:39;;;;;;;10.15;6.60;;;19.40;99.90;;;;;;5068623;28;20031;-78
2021/09/11 04:53:05;;;;;;;14.77;7.05;;;19.40;99.90;;;;;;5074242;28;20380;-78
2021/09/11 04:55:31;;;;;;;14.32;7.00;;;19.30;99.90;;;;;;5065871;28;20040;-78
2021/09/11 04:57:57;;;;;;;11.32;6.35;;;19.30;99.90;;;;;;5069393;28;20027;-78
2021/09/11 05:00:23;;;;;;;14.32;7.35;;;19.30;99.90;;;;;;5070772;28;20033;-78
2021/09/11 05:02:48;;;;;;;11.07;7.70;;;19.40;99.90;;;;;;5067883;28;20028;-78
2021/09/11 05:05:14;;;;;;;13.05;7.38;;;19.30;99.90;;;;;;5067068;28;20084;-78
2021/09/11 05:07:40;;;;;;;11.95;6.50;;;19.30;99.90;;;;;;5067576;28;20149;-77
2021/09/11 05:10:06;;;;;;;12.07;6.90;;;19.40;99.90;;;;;;5076581;28;20016;-78
2021/09/11 05:12:31;;;;;;;11.70;6.63;;;19.40;99.90;;;;;;5070083;28;20029;-78
2021/09/11 05:14:57;;;;;;;11.52;6.95;;;19.40;99.90;;;;;;5069537;28;20017;-78
2021/09/11 05:17:23;;;;;;;7.75;5.93;;;19.40;99.90;;;;;;5068655;28;20437;-77
2021/09/11 05:19:49;;;;;;;10.43;6.63;;;19.40;99.90;;;;;;5062118;28;20095;-79
2021/09/11 05:22:14;;;;;;;11.27;6.43;;;19.30;99.90;;;;;;5069037;28;20112;-78
2021/09/11 05:24:42;;;;;;;12.38;6.78;;;19.30;99.90;;;;;;5062778;28;20385;-77
2021/09/11 05:27:07;;;;;;;11.82;6.55;;;19.30;99.90;;;;;;5071127;28;20035;-77
2021/09/11 05:29:33;;;;;;;12.90;6.45;;;19.30;99.90;;;;;;5062542;28;20028;-78
2021/09/11 05:31:59;;;;;;;12.13;6.55;;;19.30;99.90;;;;;;5063508;28;20381;-77
2021/09/11 05:34:24;;;;;;;9.60;6.40;;;19.10;99.90;;;;;;5066287;28;20032;-77
2021/09/11 05:36:50;;;;;;;13.25;6.38;;;19.20;99.90;;;;;;5063124;28;20066;-78
2021/09/11 05:39:16;;;;;;;11.73;6.90;;;19.20;99.90;;;;;;5067431;28;20070;-78
2021/09/11 05:41:42;;;;;;;11.00;6.65;;;19.10;99.90;;;;;;5063273;28;20017;-78
2021/09/11 05:44:08;;;;;;;10.63;6.28;;;19.20;99.90;;;;;;5064820;28;20031;-77
2021/09/11 05:46:34;;;;;;;11.98;6.47;;;19.10;99.90;;;;;;5069978;28;20041;-78
2021/09/11 05:48:59;;;;;;;13.13;7.10;;;19.10;99.90;;;;;;5066762;28;20021;-78
2021/09/11 05:51:25;;;;;;;14.15;7.00;;;19.20;99.90;;;;;;5068043;28;20032;-78
2021/09/11 05:53:51;;;;;;;8.30;6.03;;;19.20;99.90;;;;;;5066325;28;20457;-78
2021/09/11 05:56:16;;;;;;;12.95;7.25;;;19.20;99.90;;;;;;5058671;28;20040;-77
2021/09/11 05:58:42;;;;;;;11.25;6.18;;;19.30;99.90;;;;;;5061708;28;20094;-78
2021/09/11 06:01:08;;;;;;;11.93;6.10;;;19.20;99.90;;;;;;5061243;28;20033;-78
2021/09/11 06:03:34;;;;;;;8.98;6.75;;;19.20;99.90;;;;;;5064315;28;20101;-77
2021/09/11 06:06:00;;;;;;;9.00;5.47;;;19.20;99.90;;;;;;5067474;28;20060;-77
2021/09/11 06:08:27;;;;;;;8.07;5.75;;;19.30;99.90;;;;;;5073776;28;20029;-78
2021/09/11 06:10:53;;;;;;;9.75;5.95;;;19.30;99.90;;;;;;5072321;28;20025;-78
2021/09/11 06:13:18;;;;;;;9.63;5.85;;;19.20;99.90;;;;;;5070150;28;20058;-78
2021/09/11 06:15:44;;;;;;;16.63;6.55;;;19.10;99.90;;;;;;5069311;28;20377;-78
2021/09/11 06:18:10;;;;;;;11.15;6.32;;;19.20;99.90;;;;;;5070763;28;20048;-75
2021/09/11 06:20:36;;;;;;;9.02;5.93;;;19.20;99.90;;;;;;5073828;28;20078;-78
2021/09/11 06:23:02;;;;;;;12.75;6.13;;;19.20;99.90;;;;;;5076541;28;20024;-78
2021/09/11 06:25:28;;;;;;;9.35;5.55;;;19.20;99.90;;;;;;5066786;28;20559;-78
2021/09/11 06:27:57;;;;;;;8.48;5.22;;;19.20;99.90;;;;;;5072999;28;20103;-77
2021/09/11 06:30:24;;;;;;;8.88;5.80;;;19.30;99.90;;;;;;5071842;28;20035;-78
2021/09/11 06:32:50;;;;;;;13.90;5.63;;;19.30;99.90;;;;;;5067953;28;20127;-77
2021/09/11 06:35:16;;;;;;;11.75;5.38;;;19.30;99.90;;;;;;5070378;28;20021;-78
2021/09/11 06:37:42;;;;;;;10.90;5.60;;;19.30;99.90;;;;;;5074078;28;20111;-78
2021/09/11 06:40:08;;;;;;;9.85;5.65;;;19.30;99.90;;;;;;5073010;28;20017;-78
2021/09/11 06:42:34;;;;;;;10.15;5.60;;;19.30;99.90;;;;;;5069660;28;20029;-78
2021/09/11 06:45:00;;;;;;;7.85;5.50;;;19.20;99.90;;;;;;5070111;28;20051;-78
2021/09/11 06:47:25;;;;;;;10.77;5.70;;;19.20;99.90;;;;;;5076189;28;20107;-79
2021/09/11 06:49:51;;;;;;;9.48;5.60;;;19.40;99.90;;;;;;5072651;28;20160;-77
2021/09/11 06:52:17;;;;;;;17.25;6.80;;;19.40;99.90;;;;;;5072477;28;20028;-78
2021/09/11 06:54:43;;;;;;;11.25;5.85;;;19.40;99.90;;;;;;5068256;28;20048;-78
2021/09/11 06:57:09;;;;;;;15.05;5.90;;;19.40;99.90;;;;;;5066503;28;20073;-78
2021/09/11 06:59:34;;;;;;;13.00;6.75;;;19.50;99.90;;;;;;5070787;28;20023;-78
2021/09/11 07:02:00;;;;;;;11.23;5.78;;;19.60;99.90;;;;;;5070805;28;20028;-78
2021/09/11 07:04:26;;;;;;;18.05;6.80;;;19.50;99.90;;;;;;5072278;28;20033;-78
2021/09/11 07:06:51;;;;;;;11.95;6.75;;;19.50;99.90;;;;;;5067766;28;20040;-78
2021/09/11 07:09:18;;;;;;;10.35;6.47;;;19.40;99.90;;;;;;5071580;28;20112;-78
2021/09/11 07:11:43;;;;;;;16.00;6.63;;;19.40;99.90;;;;;;5067576;28;20142;-77
2021/09/11 07:14:09;;;;;;;13.02;7.22;;;19.50;99.90;;;;;;5071431;28;20480;-76
2021/09/11 07:16:35;;;;;;;12.65;6.45;;;19.50;99.90;;;;;;5064812;28;20067;-77
2021/09/11 07:19:01;;;;;;;10.65;6.18;;;19.40;99.90;;;;;;5071017;28;20024;-78
2021/09/11 07:21:27;;;;;;;15.52;7.43;;;19.50;99.90;;;;;;5072096;28;20049;-76
2021/09/11 07:23:52;;;;;;;12.52;6.55;;;19.60;99.90;;;;;;5075478;28;20020;-76
2021/09/11 07:26:19;;;;;;;12.75;7.72;;;19.60;99.90;;;;;;5066356;28;20056;-77
2021/09/11 07:28:46;;;;;;;13.75;7.50;;;19.60;99.90;;;;;;5074646;28;20020;-77
2021/09/11 07:31:12;;;;;;;11.63;6.72;;;19.60;99.90;;;;;;5068323;28;20035;-77
2021/09/11 07:33:38;;;;;;;12.60;7.57;;;19.70;99.90;;;;;;5067419;28;20024;-76
2021/09/11 07:36:05;;;;;;;13.40;6.93;;;19.70;99.90;;;;;;5069442;28;20392;-75
2021/09/11 07:38:31;;;;;;;12.90;6.63;;;19.70;99.90;;;;;;5069061;28;20491;-77
2021/09/11 07:40:57;;;;;;;14.02;7.68;;;19.70;99.90;;;;;;5071248;28;20056;-77
2021/09/11 07:43:23;;;;;;;14.00;7.65;;;19.60;99.90;;;;;;5065807;28;20024;-76
2021/09/11 07:45:48;;;;;;;12.80;6.70;;;19.60;99.90;;;;;;5067356;28;20052;-76
2021/09/11 07:48:14;;;;;;;12.45;7.35;;;19.60;99.90;;;;;;5076569;28;20500;-76
2021/09/11 07:50:39;;;;;;;12.10;8.23;;;19.70;99.90;;;;;;5078705;28;20032;-76
2021/09/11 07:53:05;;;;;;;17.30;9.63;;;19.70;99.90;;;;;;5076617;28;20044;-76
2021/09/11 07:55:32;;;;;;;12.25;7.90;;;19.70;99.90;;;;;;5074598;28;20037;-77
2021/09/11 07:57:58;;;;;;;15.75;7.85;;;19.80;99.90;;;;;;5072072;28;20078;-76
2021/09/11 08:00:25;;;;;;;12.95;7.50;;;19.80;99.90;;;;;;5069278;28;20032;-76
2021/09/11 08:02:50;;;;;;;13.77;7.03;;;19.70;99.90;;;;;;5068343;28;20027;-77
2021/09/11 08:05:16;;;;;;;14.00;7.47;;;19.80;99.90;;;;;;5068488;28;20144;-77
2021/09/11 08:07:42;;;;;;;13.00;7.97;;;19.80;99.90;;;;;;5068598;28;20055;-77
2021/09/11 08:10:08;;;;;;;13.43;7.82;;;19.70;99.90;;;;;;5070167;28;20412;-77
2021/09/11 08:12:35;;;;;;;17.02;7.63;;;19.90;99.90;;;;;;5072628;28;20089;-76
2021/09/11 08:15:01;;;;;;;13.50;7.53;;;19.90;99.90;;;;;;5071482;28;20091;-77
2021/09/11 08:17:27;;;;;;;13.60;8.23;;;20.00;99.90;;;;;;5067146;28;20024;-76
2021/09/11 08:19:52;;;;;;;16.92;8.90;;;20.10;99.90;;;;;;5075668;28;20428;-76
2021/09/11 08:22:18;;;;;;;17.85;7.95;;;20.10;99.90;;;;;;5076744;28;20070;-76
2021/09/11 08:24:44;;;;;;;11.23;7.85;;;20.20;99.90;;;;;;5068213;28;20538;-76
2021/09/11 08:27:10;;;;;;;15.50;9.02;;;20.20;99.90;;;;;;5069236;28;20503;-77
2021/09/11 08:29:35;;;;;;;12.73;9.23;;;20.30;99.90;;;;;;5066716;28;20033;-77
2021/09/11 08:32:03;;;;;;;14.60;9.82;;;20.20;99.90;;;;;;5060622;28;20056;-77
2021/09/11 08:34:28;;;;;;;15.68;8.45;;;20.20;99.90;;;;;;5067185;28;20106;-77
2021/09/11 08:36:54;;;;;;;12.50;9.02;;;20.40;99.90;;;;;;5067459;28;20457;-76
2021/09/11 08:39:24;;;;;;;16.17;9.68;;;20.50;99.90;;;;;;5068907;28;20032;-77
2021/09/11 08:41:50;;;;;;;16.08;9.65;;;20.50;99.90;;;;;;5065498;28;20485;-78
2021/09/11 08:44:16;;;;;;;12.32;9.20;;;20.40;99.90;;;;;;5069567;28;20021;-78
2021/09/11 08:46:42;;;;;;;12.65;9.70;;;20.60;99.90;;;;;;5062039;28;20393;-78
2021/09/11 08:49:10;;;;;;;16.63;9.80;;;20.60;99.90;;;;;;5064757;28;20103;-74
2021/09/11 08:51:36;;;;;;;14.73;10.05;;;20.60;99.90;;;;;;5047064;28;20484;-77
2021/09/11 08:54:02;;;;;;;15.85;10.15;;;20.50;99.90;;;;;;5063570;28;20024;-77
2021/09/11 08:56:27;;;;;;;18.08;10.70;;;20.50;99.90;;;;;;5066317;28;20032;-77
2021/09/11 08:59:09;;;;;;;14.13;10.00;;;20.60;99.90;;;;;;5066857;28;20540;-77
2021/09/11 09:01:35;;;;;;;14.70;10.95;;;20.80;99.90;;;;;;5060091;28;20403;-77
2021/09/11 09:04:01;;;;;;;16.15;11.93;;;20.80;99.90;;;;;;5065936;28;20115;-77
2021/09/11 09:06:30;;;;;;;18.17;12.35;;;20.80;99.90;;;;;;5068570;28;20435;-77
2021/09/11 09:09:10;;;;;;;14.45;10.70;;;20.80;99.90;;;;;;5065183;28;20078;-77
2021/09/11 09:11:44;;;;;;;17.85;11.70;;;20.80;99.90;;;;;;5069262;28;20028;-77
2021/09/11 09:14:14;;;;;;;13.50;11.23;;;20.80;99.90;;;;;;5062410;28;20387;-77
2021/09/11 09:16:50;;;;;;;16.67;11.15;;;20.90;99.90;;;;;;5066991;28;20093;-77
2021/09/11 09:19:21;;;;;;;12.88;10.50;;;21.00;99.90;;;;;;5064578;28;20029;-77
2021/09/11 09:21:49;;;;;;;14.80;9.98;;;20.90;99.90;;;;;;5066329;28;20052;-78
2021/09/11 09:24:30;;;;;;;13.48;9.38;;;21.00;99.90;;;;;;5066814;28;20033;-78
2021/09/11 09:27:02;;;;;;;16.48;9.80;;;21.10;99.90;;;;;;5062753;28;20050;-73
2021/09/11 09:29:28;;;;;;;14.18;10.02;;;21.20;99.90;;;;;;5066853;28;20107;-78
2021/09/11 09:31:56;;;;;;;12.90;9.55;;;21.20;99.90;;;;;;5065516;28;20025;-77
2021/09/11 09:34:40;;;;;;;13.13;9.55;;;21.20;99.90;;;;;;5061947;28;20025;-77
2021/09/11 09:37:08;;;;;;;9.65;8.75;;;21.20;99.90;;;;;;5061706;28;20460;-75
2021/09/11 09:39:42;;;;;;;13.50;8.73;;;21.20;99.90;;;;;;5066553;28;20055;-75
2021/09/11 09:42:08;;;;;;;13.90;10.23;;;21.30;99.90;;;;;;5065496;28;20065;-75
2021/09/11 09:44:48;;;;;;;14.60;9.55;;;21.10;99.90;;;;;;5070606;28;20017;-75
2021/09/11 09:47:16;;;;;;;16.25;9.55;;;21.20;99.90;;;;;;5069697;28;20419;-77
2021/09/11 09:50:01;;;;;;;13.95;10.23;;;21.10;99.90;;;;;;5071352;28;20024;-75
2021/09/11 09:52:28;;;;;;;13.57;9.38;;;21.10;99.90;;;;;;5070777;28;20036;-76
2021/09/11 09:54:56;;;;;;;9.80;8.57;;;21.10;99.90;;;;;;5077460;28;20047;-74
2021/09/11 09:57:22;;;;;;;12.65;9.88;;;21.10;99.90;;;;;;5071781;28;20029;-78
2021/09/11 09:59:50;;;;;;;12.57;9.57;;;21.20;99.90;;;;;;5061981;28;20028;-75
2021/09/11 10:02:16;;;;;;;12.65;8.98;;;21.20;99.90;;;;;;5066553;28;20508;-75
2021/09/11 10:04:42;;;;;;;15.70;9.15;;;21.30;99.90;;;;;;5072642;28;20024;-79
2021/09/11 10:07:08;;;;;;;13.98;9.52;;;21.30;99.90;;;;;;5077617;28;20031;-80
2021/09/11 10:09:34;;;;;;;11.45;8.75;;;21.30;99.90;;;;;;5084226;28;20021;-79
2021/09/11 10:12:00;;;;;;;12.85;8.77;;;21.40;99.90;;;;;;5071333;28;20059;-79
2021/09/11 10:14:33;;;;;;;10.15;8.77;;;21.30;99.90;;;;;;5071373;28;20417;-81
2021/09/11 10:17:04;;;;;;;11.60;8.45;;;21.40;99.90;;;;;;5069748;28;20044;-78
2021/09/11 10:19:32;;;;;;;11.70;8.43;;;21.40;99.90;;;;;;5068305;28;20072;-79
2021/09/11 10:22:24;;;;;;;11.32;8.80;;;21.50;99.90;;;;;;5067071;28;20120;-78
2021/09/11 10:25:00;;;;;;;9.77;8.60;;;21.50;99.90;;;;;;5061527;28;20044;-75
2021/09/11 10:27:36;;;;;;;10.68;8.68;;;21.70;99.90;;;;;;5064853;28;20044;-75
2021/09/11 10:30:14;;;;;;;8.70;7.53;;;21.70;99.90;;;;;;5064253;28;20520;-74
2021/09/11 10:32:44;;;;;;;10.52;8.25;;;21.80;99.90;;;;;;5064112;28;20028;-76
2021/09/11 10:35:13;;;;;;;9.40;6.93;;;21.80;99.90;;;;;;5068471;28;20028;-75
2021/09/11 10:37:52;;;;;;;16.45;8.38;;;22.00;99.90;;;;;;5070818;28;20431;-77
2021/09/11 10:40:38;;;;;;;11.05;7.88;;;22.10;99.90;;;;;;5076131;28;20016;-75
2021/09/11 10:43:09;;;;;;;9.68;7.75;;;22.10;99.90;;;;;;5073031;28;20442;-75
2021/09/11 10:45:53;;;;;;;10.40;8.05;;;22.20;99.90;;;;;;5066907;28;20103;-78
2021/09/11 10:48:42;;;;;;;7.00;6.40;;;22.30;99.90;;;;;;5084326;28;20037;-74
2021/09/11 10:51:18;;;;;;;7.03;6.30;;;22.40;99.90;;;;;;5068594;28;20037;-79
2021/09/11 10:54:03;;;;;;;7.63;6.40;;;22.40;99.90;;;;;;5072464;28;20016;-78
2021/09/11 10:56:32;;;;;;;7.97;6.05;;;22.40;99.90;;;;;;5071145;28;20487;-77
2021/09/11 10:59:19;;;;;;;10.75;6.68;;;22.30;99.90;;;;;;5068421;28;20029;-77
2021/09/11 11:02:05;;;;;;;5.85;5.35;;;22.20;99.90;;;;;;5067593;28;20472;-76
2021/09/11 11:04:49;;;;;;;10.45;6.70;;;22.10;99.90;;;;;;5070770;28;20377;-77
2021/09/11 11:07:26;;;;;;;10.27;5.75;;;22.20;99.90;;;;;;5067457;28;20131;-76
2021/09/11 11:10:04;;;;;;;5.78;5.20;;;22.20;99.90;;;;;;5066556;28;20035;-77
2021/09/11 11:12:33;;;;;;;8.95;5.07;;;22.30;99.90;;;;;;5064702;28;20110;-77
2021/09/11 11:15:00;;;;;;;8.23;5.35;;;22.40;99.90;;;;;;5083228;28;20858;-77
2021/09/11 11:17:26;;;;;;;9.00;5.43;;;22.40;99.90;;;;;;5067199;28;20029;-76
2021/09/11 11:19:53;;;;;;;8.20;4.95;;;22.50;99.90;;;;;;5067502;28;20086;-77
2021/09/11 11:22:40;;;;;;;8.82;5.70;;;22.60;99.90;;;;;;5068958;28;20044;-76
2021/09/11 11:25:09;;;;;;;8.00;6.07;;;22.60;99.90;;;;;;5063972;28;20059;-77
2021/09/11 11:27:36;;;;;;;7.40;5.75;;;22.50;99.90;;;;;;5066261;28;20032;-73
2021/09/11 11:30:03;;;;;;;12.23;5.40;;;22.60;99.90;;;;;;5066776;28;20053;-76
2021/09/11 11:32:38;;;;;;;8.07;5.22;;;22.60;99.90;;;;;;5070238;28;20025;-77
2021/09/11 11:35:06;;;;;;;11.15;6.20;;;22.60;99.90;;;;;;5066877;28;20035;-77
2021/09/11 11:37:38;;;;;;;6.82;4.90;;;22.60;99.90;;;;;;5067552;28;20184;-76
2021/09/11 11:40:10;;;;;;;6.18;4.85;;;22.40;99.90;;;;;;5071639;28;20044;-76
2021/09/11 11:42:37;;;;;;;6.65;4.80;;;22.40;99.90;;;;;;5068750;28;20024;-76
2021/09/11 11:45:06;;;;;;;6.78;4.90;;;22.30;99.90;;;;;;5085931;28;20017;-76
2021/09/11 11:47:54;;;;;;;10.20;5.28;;;22.20;99.90;;;;;;5069947;28;20030;-77
2021/09/11 11:50:30;;;;;;;5.78;4.47;;;22.30;99.90;;;;;;5079896;28;20373;-76
2021/09/11 11:53:10;;;;;;;5.90;4.45;;;22.20;99.90;;;;;;5067546;28;20039;-77
2021/09/11 11:55:44;;;;;;;9.27;5.30;;;22.30;99.90;;;;;;5068240;28;20036;-75
2021/09/11 11:58:17;;;;;;;7.40;4.68;;;22.30;99.90;;;;;;5069948;28;20076;-76
2021/09/11 12:00:57;;;;;;;6.50;4.72;;;22.30;99.90;;;;;;5072021;28;21183;-75
2021/09/11 12:03:46;;;;;;;8.75;5.68;;;22.10;99.90;;;;;;5065980;28;20060;-77
2021/09/11 12:06:21;;;;;;;7.43;5.70;;;22.20;99.90;;;;;;5065644;28;20040;-80
2021/09/11 12:08:48;;;;;;;7.43;6.60;;;22.10;99.90;;;;;;5074026;28;20108;-75
2021/09/11 12:11:16;;;;;;;7.40;6.07;;;22.10;99.90;;;;;;5068870;28;20086;-76
2021/09/11 12:13:44;;;;;;;7.72;5.88;;;22.10;99.90;;;;;;5076824;28;20062;-77
2021/09/11 12:16:10;;;;;;;6.35;4.63;;;22.10;99.90;;;;;;5065708;28;20023;-78
2021/09/11 12:18:36;;;;;;;6.88;5.35;;;22.00;99.90;;;;;;5066203;28;20086;-78
2021/09/11 12:21:10;;;;;;;8.05;5.45;;;22.00;99.90;;;;;;5067161;28;20024;-79
2021/09/11 12:23:38;;;;;;;6.38;5.40;;;22.20;99.90;;;;;;5073169;28;20081;-75
2021/09/11 12:26:05;;;;;;;7.97;5.72;;;22.20;99.90;;;;;;5066410;28;20055;-74
2021/09/11 12:28:43;;;;;;;12.18;6.50;;;22.30;99.90;;;;;;5071951;28;20027;-75
2021/09/11 12:31:23;;;;;;;6.88;5.68;;;22.20;99.90;;;;;;5072273;28;20032;-74
2021/09/11 12:33:57;;;;;;;7.78;5.82;;;22.20;99.90;;;;;;5072824;28;20469;-74
2021/09/11 12:36:38;;;;;;;7.50;5.97;;;22.20;99.90;;;;;;5071258;28;20029;-74
2021/09/11 12:39:25;;;;;;;6.85;5.97;;;22.30;99.90;;;;;;5065233;28;20036;-74